Crawford, NE (69339)

7:34 PM MDT on August 20, 2014 (GMT -0600)
Chadron Municipal | Change Station
CLOSE
Current Station
Airport
Location: Chadron,
Elevation: 3297 ft
Nearby Weather Stations

Elev 3297 ft 42.84 °N, 103.10 °W | Updated 41 minutes ago

Clear
Clear
88 °F
Feels Like 88 °F
N
9
Wind Variable Wind from West

Today
High -- | Low -- °F
--% Chance of Precip.
Yesterday
High -- | Low -- °F
Precip. -- in
6:05 AM 7:47 PM
Waning Crescent, 18% visible
Pressure 29.65 in
Visibility 10.0 miles
Clouds Clear
Dew Point 48 °F
Humidity 25%
Rainfall 0.00 in
Snow Depth Not available.
UV 0 out of 12
Pollen 9.40 out of 12
Air Quality Not available.
Flu Activity Not available.
METAR KCDR 210053Z AUTO 27008KT 10SM CLR 31/09 A2975 RMK AO2 SLP040 T03110089

More Conditions Fewer Conditions

Pressure 29.65 in
Visibility 10.0 miles
Clouds Clear
Dew Point 48 °F
Humidity 25%
Rainfall 0.00 in
Snow Depth Not available.
UV 0 out of 12
Pollen 9.40 out of 12
Air Quality Not available.
Flu Activity Not available.
METAR KCDR 210053Z AUTO 27008KT 10SM CLR 31/09 A2975 RMK AO2 SLP040 T03110089

More Conditions Fewer Conditions

10-Day Weather Forecast

Almanac

Astronomy

Aug. 20, 2014 Rise Set
Actual Time 6:05 AM MDT 7:47 PM MDT
Civil Twilight 5:35 AM MDT 8:17 PM MDT
Nautical Twilight 4:59 AM MDT 8:53 PM MDT
Astronomical Twilight 4:20 AM MDT 9:32 PM MDT
Moon 1:45 AM MDT (8/20) 4:36 PM MDT (8/20)
Length of Visible Light 14h 41m
Length of Day
13h 41m
Tomorrow will be 2m 38s shorter.
Waning Crescent, 18% of the Moon is Illuminated
Today
Waning Crescent
Aug 25
New
Sep 2
First Quarter
Sep 8
Full
Sep 15
Last Quarter

Today's Extremes

State Highs State Lows

Community

WunderPhotos

Upload Photos

1,745,859 photos uploaded!

WunderBlogs® & News

Nearby

Snow Depth

Station Depth Elevation
No new snow has been reported.

Earthquake Activity

City Distance Mag. Time & Date
No recent earthquake activity has been reported nearby.
Minimum magnitude displayed is 2.5.

Coastal Water Temperatures

Place Temperature
No Stations Reporting

Nearby Weather Stations